Time;durP1;ratioP1;P1;durP2;ratioP2;P2;SDS_P1;SDS_P2;PMS_P1;PMS_P2;Temp;Humidity;BMP_temperature;BMP_pressure;BME280_temperature;BME280_humidity;BME280_pressure;Samples;Min_cycle;Max_cycle;Signal;HPM_P1;HPM_P2
2021/11/07 00:00:00;;;;;;;36.20;20.27;;;2.80;99.90;;;;;;5030413;28;20471;-64
2021/11/07 00:05:07;;;;;;;37.05;20.55;;;3.00;99.90;;;;;;5029397;28;20091;-64
2021/11/07 00:10:22;;;;;;;35.13;20.60;;;2.90;99.90;;;;;;5030508;28;20116;-63
2021/11/07 00:12:50;;;;;;;34.00;21.23;;;3.00;99.90;;;;;;5029075;28;20034;-64
2021/11/07 00:15:17;;;;;;;35.03;19.65;;;3.20;99.90;;;;;;5029196;28;20095;-64
2021/11/07 00:17:49;;;;;;;33.47;19.58;;;2.90;99.90;;;;;;5031228;28;20025;-63
2021/11/07 00:20:34;;;;;;;;;;;2.90;99.90;;;;;;5032003;28;20059;-63
2021/11/07 00:25:44;;;;;;;37.20;21.00;;;3.50;99.90;;;;;;5029199;28;20029;-63
2021/11/07 00:28:20;;;;;;;34.85;20.13;;;3.10;99.90;;;;;;5029956;28;20449;-64
2021/11/07 00:33:42;;;;;;;36.88;20.13;;;3.00;99.90;;;;;;5029781;28;20047;-64
2021/11/07 00:36:22;;;;;;;35.53;19.20;;;3.30;99.90;;;;;;5028431;28;20042;-64
2021/11/07 00:39:07;;;;;;;33.13;19.67;;;3.40;99.90;;;;;;5029830;28;20053;-64
2021/11/07 00:41:49;;;;;;;33.65;20.23;;;3.00;99.90;;;;;;5029937;28;20025;-64
2021/11/07 00:46:57;;;;;;;30.67;18.15;;;2.80;99.90;;;;;;5031680;28;20037;-64
2021/11/07 00:49:31;;;;;;;34.45;18.88;;;2.70;99.90;;;;;;5033973;28;20021;-64
2021/11/07 00:54:31;;;;;;;57.00;19.65;;;2.80;99.90;;;;;;5033502;28;20104;-64
2021/11/07 00:57:14;;;;;;;27.75;17.38;;;2.70;99.90;;;;;;5033816;28;20030;-64
2021/11/07 00:59:55;;;;;;;33.45;18.27;;;3.20;99.90;;;;;;5033692;28;20491;-64
2021/11/07 01:02:30;;;;;;;41.28;18.73;;;2.80;99.90;;;;;;5033705;28;20026;-63
2021/11/07 01:04:57;;;;;;;29.95;18.73;;;2.60;99.90;;;;;;5033262;28;20048;-64
2021/11/07 01:07:24;;;;;;;29.23;17.67;;;2.60;99.90;;;;;;5034358;28;20140;-63
2021/11/07 01:09:52;;;;;;;30.85;18.48;;;2.60;99.90;;;;;;5061982;22;20033;-67
2021/11/07 01:12:18;;;;;;;31.33;19.45;;;0.50;99.90;;;;;;5048628;28;20025;-68
2021/11/07 01:14:44;;;;;;;35.63;19.38;;;2.70;99.90;;;;;;5033990;28;20028;-65
2021/11/07 01:17:10;;;;;;;32.00;19.42;;;2.70;99.90;;;;;;5034158;28;20029;-67
2021/11/07 01:19:36;;;;;;;32.60;19.15;;;2.80;99.90;;;;;;5033377;28;20029;-67
2021/11/07 01:22:05;;;;;;;33.20;19.20;;;2.60;99.90;;;;;;5033452;28;20033;-67
2021/11/07 01:24:37;;;;;;;33.55;19.65;;;2.60;99.90;;;;;;5032679;28;20173;-66
2021/11/07 01:27:25;;;;;;;31.83;18.30;;;2.50;99.90;;;;;;5033474;28;20075;-65
2021/11/07 01:29:54;;;;;;;35.42;19.80;;;2.50;99.90;;;;;;5033182;28;20026;-67
2021/11/07 01:32:22;;;;;;;33.00;19.85;;;2.50;99.90;;;;;;5033273;28;20064;-66
2021/11/07 01:35:16;;;;;;;35.63;21.02;;;2.40;99.90;;;;;;5032609;28;20075;-66
2021/11/07 01:37:42;;;;;;;36.95;21.35;;;2.30;99.90;;;;;;5033050;28;20030;-67
2021/11/07 01:40:14;;;;;;;37.92;22.15;;;2.30;99.90;;;;;;5043600;28;20029;-67
2021/11/07 01:42:43;;;;;;;43.13;22.15;;;2.10;99.90;;;;;;5054269;28;20028;-66
2021/11/07 01:45:21;;;;;;;38.08;21.95;;;2.20;99.90;;;;;;5053653;28;20021;-68
2021/11/07 01:47:54;;;;;;;38.55;22.10;;;2.90;99.90;;;;;;5055162;28;20060;-66
2021/11/07 01:50:20;;;;;;;34.50;20.75;;;2.30;99.90;;;;;;5055051;28;20116;-66
2021/11/07 01:52:53;;;;;;;32.10;19.67;;;2.90;99.90;;;;;;5055436;28;20029;-66
2021/11/07 01:55:20;;;;;;;31.35;19.30;;;2.30;99.90;;;;;;5053648;28;20056;-66
2021/11/07 01:57:49;;;;;;;30.42;19.23;;;2.30;99.90;;;;;;5054455;28;20386;-66
2021/11/07 02:00:24;;;;;;;33.88;19.30;;;2.30;99.90;;;;;;5054069;28;20056;-66
2021/11/07 02:02:51;;;;;;;33.10;18.98;;;2.20;99.90;;;;;;5054955;28;20052;-66
2021/11/07 02:05:17;;;;;;;45.25;19.58;;;2.20;99.90;;;;;;5054573;28;20104;-67
2021/11/07 02:07:43;;;;;;;31.60;19.05;;;2.00;99.90;;;;;;5055192;28;20530;-67
2021/11/07 02:10:13;;;;;;;30.27;18.85;;;2.00;99.90;;;;;;5064213;28;20036;-65
2021/11/07 02:12:41;;;;;;;32.78;20.02;;;2.00;99.90;;;;;;5075384;28;20703;-67
2021/11/07 02:15:11;;;;;;;29.90;19.15;;;2.00;99.90;;;;;;5075633;28;20072;-66
2021/11/07 02:17:37;;;;;;;33.60;19.83;;;2.10;99.90;;;;;;5076876;28;20390;-65
2021/11/07 02:20:09;;;;;;;35.17;20.15;;;2.10;99.90;;;;;;5074353;28;20055;-66
2021/11/07 02:22:39;;;;;;;32.25;19.95;;;2.10;99.90;;;;;;5074508;28;20036;-67
2021/11/07 02:25:07;;;;;;;33.28;19.98;;;2.10;99.90;;;;;;5073950;28;20033;-67
2021/11/07 02:27:33;;;;;;;37.83;20.20;;;2.00;99.90;;;;;;5073946;28;20115;-68
2021/11/07 02:29:59;;;;;;;36.90;20.98;;;2.10;99.90;;;;;;5071129;28;20089;-67
2021/11/07 02:32:26;;;;;;;31.73;19.10;;;2.10;99.90;;;;;;5073119;28;20066;-66
2021/11/07 02:34:52;;;;;;;36.95;21.00;;;2.20;99.90;;;;;;5054512;28;20017;-66
2021/11/07 02:37:18;;;;;;;33.67;19.98;;;2.40;99.90;;;;;;5073163;28;20389;-66
2021/11/07 02:39:44;;;;;;;35.35;21.10;;;2.40;99.90;;;;;;5072703;28;20027;-66
2021/11/07 02:42:11;;;;;;;35.70;21.10;;;2.10;99.90;;;;;;5073572;28;20060;-66
2021/11/07 02:44:41;;;;;;;37.30;21.02;;;2.10;99.90;;;;;;5072804;28;20082;-67
2021/11/07 02:47:09;;;;;;;35.67;21.10;;;2.00;99.90;;;;;;5073334;28;20025;-67
2021/11/07 02:49:35;;;;;;;41.28;21.88;;;2.10;99.90;;;;;;5072881;28;20039;-67
2021/11/07 02:52:05;;;;;;;42.47;23.02;;;2.10;99.90;;;;;;5073577;28;20024;-67
2021/11/07 02:54:32;;;;;;;37.05;21.65;;;2.10;99.90;;;;;;5072102;28;20074;-67
2021/11/07 02:57:00;;;;;;;43.42;22.05;;;2.10;99.90;;;;;;5073302;28;20421;-66
2021/11/07 02:59:30;;;;;;;36.60;21.20;;;2.20;99.90;;;;;;5072846;28;20100;-66
2021/11/07 03:01:56;;;;;;;35.47;20.13;;;3.00;99.90;;;;;;5054933;28;20032;-66
2021/11/07 03:04:25;;;;;;;37.67;20.30;;;2.40;99.90;;;;;;5072454;28;20070;-66
2021/11/07 03:06:51;;;;;;;34.60;19.77;;;2.00;99.90;;;;;;5072974;28;20047;-66
2021/11/07 03:09:23;;;;;;;41.42;21.15;;;2.00;99.90;;;;;;5072521;28;20478;-67
2021/11/07 03:11:53;;;;;;;39.92;20.98;;;2.10;99.90;;;;;;5072870;28;20028;-68
2021/11/07 03:14:29;;;;;;;36.97;20.35;;;2.10;99.90;;;;;;5054053;28;20024;-67
2021/11/07 03:16:55;;;;;;;36.85;19.80;;;2.20;99.90;;;;;;5054135;28;20550;-68
2021/11/07 03:19:23;;;;;;;34.97;19.65;;;2.50;99.90;;;;;;5071902;28;20028;-67
2021/11/07 03:21:51;;;;;;;35.80;19.10;;;2.30;99.90;;;;;;5072274;28;20428;-68
2021/11/07 03:24:18;;;;;;;36.10;19.25;;;1.90;99.90;;;;;;5071331;28;20048;-67
2021/11/07 03:26:45;;;;;;;32.15;19.02;;;1.80;99.90;;;;;;5070977;28;20101;-67
2021/11/07 03:29:12;;;;;;;33.35;19.35;;;1.80;99.90;;;;;;5070883;28;20028;-67
2021/11/07 03:31:56;;;;;;;31.92;18.00;;;1.80;99.90;;;;;;5071139;28;20021;-66
2021/11/07 03:34:34;;;;;;;34.67;19.00;;;2.30;99.90;;;;;;5070407;28;20230;-66
2021/11/07 03:37:06;;;;;;;33.58;19.45;;;1.70;99.90;;;;;;5052845;28;20686;-67
2021/11/07 03:39:35;;;;;;;39.70;20.05;;;1.80;99.90;;;;;;5070937;28;20028;-67
2021/11/07 03:42:02;;;;;;;35.15;19.40;;;1.80;99.90;;;;;;5071825;28;20043;-67
2021/11/07 03:44:27;;;;;;;35.60;19.42;;;1.80;99.90;;;;;;5070932;28;20059;-67
2021/11/07 03:46:55;;;;;;;34.83;19.88;;;1.70;99.90;;;;;;5071635;28;20059;-66
2021/11/07 03:49:22;;;;;;;37.42;19.27;;;1.60;99.90;;;;;;5071454;28;20040;-66
2021/11/07 03:51:48;;;;;;;30.95;19.25;;;1.60;99.90;;;;;;5071386;28;20364;-66
2021/11/07 03:54:15;;;;;;;36.17;20.25;;;1.60;99.90;;;;;;5072146;28;20031;-66
2021/11/07 03:56:42;;;;;;;33.65;19.17;;;1.50;99.90;;;;;;5073353;28;20074;-66
2021/11/07 03:59:08;;;;;;;33.55;19.95;;;1.60;99.90;;;;;;5073986;28;20082;-65
2021/11/07 04:01:36;;;;;;;41.22;22.23;;;1.60;99.90;;;;;;5073536;28;20020;-66
2021/11/07 04:04:05;;;;;;;40.88;21.13;;;1.60;99.90;;;;;;5074113;28;20016;-66
2021/11/07 04:06:31;;;;;;;39.40;20.73;;;1.60;99.90;;;;;;5072437;28;20455;-66
2021/11/07 04:08:57;;;;;;;32.17;18.45;;;1.50;99.90;;;;;;5071444;28;20033;-67
2021/11/07 04:11:23;;;;;;;41.60;20.67;;;2.20;99.90;;;;;;5070759;28;20093;-66
2021/11/07 04:13:49;;;;;;;41.50;21.10;;;1.90;99.90;;;;;;5071359;28;20100;-67
2021/11/07 04:16:15;;;;;;;34.17;19.75;;;1.40;99.90;;;;;;5070495;28;20020;-66
2021/11/07 04:18:43;;;;;;;42.80;21.58;;;1.40;99.90;;;;;;5071094;28;20063;-66
2021/11/07 04:21:09;;;;;;;40.83;20.27;;;1.40;99.90;;;;;;5070128;28;20024;-66
2021/11/07 04:23:36;;;;;;;39.55;20.92;;;1.30;99.90;;;;;;5070989;28;20486;-66
2021/11/07 04:26:03;;;;;;;39.42;21.08;;;1.30;99.90;;;;;;5069957;28;20055;-66
2021/11/07 04:28:28;;;;;;;39.92;22.35;;;1.30;99.90;;;;;;5053105;28;20020;-65
2021/11/07 04:30:54;;;;;;;37.70;20.63;;;1.30;99.90;;;;;;5070965;28;20114;-67
2021/11/07 04:33:22;;;;;;;36.83;19.45;;;1.30;99.90;;;;;;5070869;28;20031;-66
2021/11/07 04:35:48;;;;;;;38.33;20.75;;;1.30;99.90;;;;;;5070030;28;20470;-67
2021/11/07 04:38:14;;;;;;;41.53;21.60;;;1.80;99.90;;;;;;5071042;28;20024;-67
2021/11/07 04:40:40;;;;;;;39.10;20.60;;;1.30;99.90;;;;;;5070747;28;20496;-67
2021/11/07 04:43:06;;;;;;;39.35;20.77;;;1.30;99.90;;;;;;5072025;28;20060;-67
2021/11/07 04:45:31;;;;;;;38.17;19.77;;;1.30;99.90;;;;;;5081500;28;20047;-66
2021/11/07 04:47:57;;;;;;;41.92;21.50;;;1.30;99.90;;;;;;5077191;28;20031;-67
2021/11/07 04:50:23;;;;;;;42.63;20.10;;;1.30;99.90;;;;;;5074378;28;20028;-67
2021/11/07 04:52:49;;;;;;;41.05;20.75;;;1.30;99.90;;;;;;5072030;28;20393;-66
2021/11/07 04:55:15;;;;;;;39.90;19.63;;;1.30;99.90;;;;;;5069996;28;20020;-66
2021/11/07 04:57:42;;;;;;;42.72;20.33;;;1.40;99.90;;;;;;5070737;28;20021;-66
2021/11/07 05:00:21;;;;;;;34.47;18.73;;;1.20;99.90;;;;;;5070594;28;20021;-67
2021/11/07 05:02:48;;;;;;;37.97;19.77;;;1.50;99.90;;;;;;5070519;28;20052;-67
2021/11/07 05:05:16;;;;;;;38.20;20.20;;;1.10;99.90;;;;;;5069482;28;20036;-66
2021/11/07 05:07:41;;;;;;;40.78;20.33;;;2.20;99.90;;;;;;5070624;28;20059;-66
2021/11/07 05:10:08;;;;;;;43.53;20.67;;;1.20;99.90;;;;;;5069918;28;20056;-67
2021/11/07 05:12:34;;;;;;;43.97;20.25;;;1.20;99.90;;;;;;5070276;28;20516;-66
2021/11/07 05:14:59;;;;;;;44.92;21.58;;;1.20;99.90;;;;;;5069236;28;20104;-65
2021/11/07 05:17:25;;;;;;;38.75;21.17;;;1.10;99.90;;;;;;5070092;28;20103;-66
2021/11/07 05:19:51;;;;;;;43.33;22.27;;;1.00;99.90;;;;;;5070220;28;20028;-66
2021/11/07 05:22:17;;;;;;;36.88;20.80;;;1.10;99.90;;;;;;5070626;28;20029;-65
2021/11/07 05:24:43;;;;;;;37.55;20.00;;;1.10;99.90;;;;;;5069354;28;20077;-67
2021/11/07 05:27:09;;;;;;;39.30;20.00;;;1.00;99.90;;;;;;5070502;28;20028;-66
2021/11/07 05:29:34;;;;;;;43.60;20.70;;;1.00;99.90;;;;;;5070002;28;20052;-66
2021/11/07 05:32:00;;;;;;;40.40;19.98;;;1.00;99.90;;;;;;5070092;28;20032;-67
2021/11/07 05:34:26;;;;;;;39.40;19.35;;;2.00;99.90;;;;;;5071912;28;20032;-66
2021/11/07 05:36:52;;;;;;;40.85;19.70;;;1.60;99.90;;;;;;5073975;28;20023;-66
2021/11/07 05:39:19;;;;;;;40.15;20.38;;;0.90;99.90;;;;;;5073954;28;20386;-65
2021/11/07 05:41:45;;;;;;;41.97;20.58;;;1.00;99.90;;;;;;5073765;28;20101;-66
2021/11/07 05:44:10;;;;;;;39.78;20.08;;;0.90;99.90;;;;;;5073796;28;20048;-66
2021/11/07 05:46:36;;;;;;;40.08;20.33;;;1.00;99.90;;;;;;5073275;28;20378;-67
2021/11/07 05:49:03;;;;;;;42.05;21.45;;;1.00;99.90;;;;;;5073951;28;20047;-66
2021/11/07 05:51:29;;;;;;;47.83;22.10;;;0.90;99.90;;;;;;5074086;28;20021;-67
2021/11/07 05:53:55;;;;;;;42.53;19.95;;;1.80;99.90;;;;;;5074166;28;20017;-67
2021/11/07 05:56:21;;;;;;;46.88;21.33;;;1.30;99.90;;;;;;5072818;28;20028;-68
2021/11/07 05:58:47;;;;;;;53.40;23.92;;;1.10;99.90;;;;;;5073568;28;20051;-65
2021/11/07 06:01:12;;;;;;;56.58;24.60;;;1.20;99.90;;;;;;5044641;28;20116;-69
2021/11/07 06:03:38;;;;;;;56.58;24.15;;;1.30;99.90;;;;;;5042207;28;20021;-68
2021/11/07 06:06:05;;;;;;;56.15;23.38;;;1.30;99.90;;;;;;5035454;28;20021;-69
2021/11/07 06:08:30;;;;;;;53.67;23.88;;;1.50;99.90;;;;;;5027873;28;20072;-69
2021/11/07 06:10:57;;;;;;;55.22;23.83;;;1.50;99.90;;;;;;5052955;28;20037;-68
2021/11/07 06:13:23;;;;;;;47.67;22.23;;;1.50;99.90;;;;;;5041985;28;20109;-68
2021/11/07 06:15:49;;;;;;;51.33;23.27;;;1.50;99.90;;;;;;5044821;28;20640;-68
2021/11/07 06:18:14;;;;;;;42.67;21.17;;;1.60;99.90;;;;;;5041798;28;20399;-68
2021/11/07 06:20:40;;;;;;;44.75;22.38;;;1.50;99.90;;;;;;5032775;28;20025;-69
2021/11/07 06:23:06;;;;;;;43.25;21.23;;;1.60;99.90;;;;;;5033034;28;20025;-68
2021/11/07 06:25:32;;;;;;;44.15;21.58;;;1.80;99.90;;;;;;5013061;28;20033;-68
2021/11/07 06:27:59;;;;;;;43.47;21.48;;;1.90;99.90;;;;;;5032589;28;20017;-67
2021/11/07 06:30:25;;;;;;;49.00;23.00;;;1.50;99.90;;;;;;5032176;28;20142;-68
2021/11/07 06:32:50;;;;;;;53.53;23.02;;;1.50;99.90;;;;;;5032925;28;20107;-68
2021/11/07 06:35:16;;;;;;;52.17;23.60;;;1.60;99.90;;;;;;5040546;28;20032;-68
2021/11/07 06:37:42;;;;;;;50.47;24.27;;;1.60;99.90;;;;;;5040962;28;20058;-68
2021/11/07 06:40:10;;;;;;;60.03;26.27;;;1.60;99.90;;;;;;5041503;28;20024;-68
2021/11/07 06:42:36;;;;;;;53.90;24.95;;;1.70;99.90;;;;;;5041568;28;20021;-68
2021/11/07 06:45:03;;;;;;;53.13;24.75;;;1.60;99.90;;;;;;5040635;28;20155;-68
2021/11/07 06:47:29;;;;;;;53.78;24.48;;;1.70;99.90;;;;;;5041532;28;20028;-68
2021/11/07 06:49:55;;;;;;;62.15;25.77;;;1.70;99.90;;;;;;5040713;28;20021;-69
2021/11/07 06:52:21;;;;;;;58.22;23.63;;;1.80;99.90;;;;;;5041344;28;20071;-69
2021/11/07 06:54:47;;;;;;;55.15;23.42;;;1.80;99.90;;;;;;5040702;28;20052;-69
2021/11/07 06:57:13;;;;;;;52.97;24.67;;;1.80;99.90;;;;;;5040937;28;20060;-68
2021/11/07 06:59:39;;;;;;;65.53;27.20;;;1.80;99.90;;;;;;5041095;28;20557;-69
2021/11/07 07:02:05;;;;;;;56.28;25.45;;;2.70;99.90;;;;;;5033970;28;20040;-68
2021/11/07 07:04:31;;;;;;;55.92;23.73;;;2.10;99.90;;;;;;5051375;28;20029;-68
2021/11/07 07:06:57;;;;;;;67.07;25.95;;;2.20;99.90;;;;;;5044869;28;20033;-68
2021/11/07 07:09:26;;;;;;;65.57;26.92;;;2.20;99.90;;;;;;5035376;28;20102;-68
2021/11/07 07:12:07;;;;;;;64.63;26.73;;;2.30;99.90;;;;;;5051759;28;20025;-69
2021/11/07 07:14:40;;;;;;;64.23;26.27;;;2.70;99.90;;;;;;5051425;28;20071;-68
2021/11/07 07:17:28;;;;;;;63.80;27.85;;;2.70;99.90;;;;;;5052029;28;20104;-69
2021/11/07 07:33:15;;;;;;;28.23;16.85;;;4.90;99.90;;;;;;5052055;28;20029;-69
2021/11/07 07:35:41;;;;;;;25.75;16.00;;;5.10;99.90;;;;;;5050847;28;20078;-69
2021/11/07 07:38:07;;;;;;;19.63;14.07;;;7.40;99.90;;;;;;5051940;28;20472;-69
2021/11/07 07:40:35;;;;;;;90.45;61.00;;;8.20;99.90;;;;;;5064077;28;20073;-75
2021/11/07 07:43:01;;;;;;;30.90;21.52;;;8.90;99.90;;;;;;5071467;28;20648;-69
2021/11/07 07:45:27;;;;;;;30.35;20.08;;;9.70;99.90;;;;;;5070431;28;20103;-69
2021/11/07 07:47:55;;;;;;;22.80;15.88;;;10.10;99.90;;;;;;5071355;28;20471;-76
2021/11/07 07:50:22;;;;;;;15.80;11.90;;;10.20;99.90;;;;;;5067516;28;20016;-76
2021/11/07 07:52:50;;;;;;;17.02;12.32;;;10.10;99.90;;;;;;5031663;28;20047;-77
2021/11/07 07:55:16;;;;;;;16.13;11.93;;;10.10;99.90;;;;;;5039935;28;20025;-77
2021/11/07 07:57:45;;;;;;;15.45;11.70;;;10.10;99.90;;;;;;5050801;28;20033;-75
2021/11/07 08:00:12;;;;;;;14.27;10.50;;;9.50;99.90;;;;;;5051358;28;20025;-75
2021/11/07 08:02:38;;;;;;;21.33;11.27;;;9.40;99.90;;;;;;5051162;28;20043;-69
2021/11/07 08:05:05;;;;;;;15.60;11.35;;;9.50;99.90;;;;;;5050238;28;20021;-69
2021/11/07 08:07:30;;;;;;;15.75;11.65;;;9.70;99.90;;;;;;5051319;28;20025;-69
2021/11/07 08:09:56;;;;;;;14.18;11.38;;;9.80;99.90;;;;;;5058456;28;20024;-72
2021/11/07 08:12:23;;;;;;;14.02;11.27;;;10.10;99.90;;;;;;5070967;28;20027;-70
2021/11/07 08:14:49;;;;;;;16.55;11.00;;;9.90;99.90;;;;;;5070032;28;20650;-72
2021/11/07 08:17:15;;;;;;;15.25;10.80;;;9.50;99.90;;;;;;5071134;28;20605;-72
2021/11/07 08:19:41;;;;;;;15.15;11.23;;;9.00;99.90;;;;;;5071060;28;20020;-73
2021/11/07 08:22:07;;;;;;;14.82;10.85;;;8.50;99.90;;;;;;5071529;28;20497;-72
2021/11/07 08:24:35;;;;;;;25.27;17.35;;;7.90;99.90;;;;;;5070668;28;20025;-71
2021/11/07 08:27:02;;;;;;;14.35;10.75;;;8.20;99.90;;;;;;5071029;28;20021;-71
2021/11/07 08:29:28;;;;;;;15.98;10.88;;;7.00;99.90;;;;;;5071364;28;20502;-72
2021/11/07 08:31:54;;;;;;;16.27;11.50;;;6.70;99.90;;;;;;5071832;28;20043;-72
2021/11/07 08:34:25;;;;;;;15.80;11.52;;;6.50;99.90;;;;;;5070881;28;20096;-71
2021/11/07 08:37:00;;;;;;;14.88;11.02;;;6.40;99.90;;;;;;5071101;28;20100;-72
2021/11/07 09:06:45;;;;;;;19.40;12.38;;;5.80;99.90;;;;;;5029815;28;20586;-71
2021/11/07 09:09:13;;;;;;;18.38;12.55;;;6.00;99.90;;;;;;5037210;28;20026;-71
2021/11/07 09:11:49;;;;;;;15.82;10.63;;;6.30;99.90;;;;;;5061690;28;20025;-72
2021/11/07 09:14:16;;;;;;;15.10;10.55;;;6.40;99.90;;;;;;5034209;28;20017;-69
2021/11/07 09:16:42;;;;;;;14.32;10.00;;;6.60;99.90;;;;;;5034099;28;20018;-70
2021/11/07 09:19:07;;;;;;;11.57;8.82;;;6.70;99.90;;;;;;5033997;28;20451;-71
2021/11/07 09:21:38;;;;;;;14.85;10.18;;;6.80;99.90;;;;;;5034131;28;20464;-72
2021/11/07 09:24:10;;;;;;;14.00;9.63;;;7.00;99.90;;;;;;5034185;28;20129;-71
2021/11/07 09:26:45;;;;;;;13.95;10.07;;;6.90;99.90;;;;;;5033658;28;20029;-71
2021/11/07 09:29:21;;;;;;;13.63;9.30;;;6.80;99.90;;;;;;5033747;28;20021;-72
2021/11/07 09:34:33;;;;;;;11.98;8.88;;;7.20;99.90;;;;;;5033694;28;20036;-71
2021/11/07 09:37:05;;;;;;;10.13;7.60;;;7.60;99.90;;;;;;5033951;28;20028;-72
2021/11/07 09:40:06;;;;;;;;;;;9.90;99.90;;;;;;5040574;28;20374;-75
2021/11/07 09:45:15;;;;;;;10.40;6.95;;;11.60;99.90;;;;;;5072893;28;20035;-71
2021/11/07 09:47:44;;;;;;;8.93;6.53;;;13.00;99.90;;;;;;5073794;28;20020;-75
2021/11/07 09:50:13;;;;;;;7.28;6.28;;;14.60;99.90;;;;;;5073546;28;20630;-74
2021/11/07 09:52:44;;;;;;;7.03;6.20;;;16.50;99.90;;;;;;5073632;28;20028;-74
2021/11/07 09:55:11;;;;;;;5.97;5.38;;;16.60;97.20;;;;;;5064231;28;20387;-74
2021/11/07 09:57:37;;;;;;;7.70;5.95;;;16.50;96.60;;;;;;5053272;28;20103;-73
2021/11/07 10:00:09;;;;;;;5.85;5.35;;;16.50;96.70;;;;;;5052658;28;20108;-74
2021/11/07 10:02:35;;;;;;;6.13;5.53;;;15.80;96.40;;;;;;5053432;28;20056;-74
2021/11/07 10:05:02;;;;;;;6.63;5.93;;;15.40;96.90;;;;;;5052550;28;20099;-72
2021/11/07 10:07:33;;;;;;;5.97;5.22;;;16.50;96.00;;;;;;5052842;28;20021;-70
2021/11/07 10:10:02;;;;;;;6.38;5.63;;;16.40;95.90;;;;;;5061240;28;20117;-72
2021/11/07 10:12:40;;;;;;;5.78;5.28;;;17.00;94.40;;;;;;5073197;28;20039;-72
2021/11/07 10:15:18;;;;;;;6.20;5.03;;;16.20;95.70;;;;;;5072616;28;20032;-71
2021/11/07 10:17:49;;;;;;;6.05;5.05;;;14.90;97.50;;;;;;5073439;28;20453;-71
2021/11/07 10:20:38;;;;;;;5.93;4.82;;;14.10;99.30;;;;;;5072354;28;20035;-71
2021/11/07 10:23:15;;;;;;;5.68;4.78;;;13.00;99.90;;;;;;5077151;28;20094;-72
2021/11/07 10:25:52;;;;;;;6.05;4.78;;;11.60;99.90;;;;;;5077075;28;20013;-72
2021/11/07 10:28:23;;;;;;;8.32;4.72;;;10.90;99.90;;;;;;5074171;28;20013;-72
2021/11/07 10:31:13;;;;;;;10.02;5.13;;;10.70;99.90;;;;;;5073100;28;20020;-72
2021/11/07 10:44:29;;;;;;;8.95;5.35;;;10.30;99.90;;;;;;5072169;28;20032;-71
2021/11/07 10:52:25;;;;;;;4.47;4.05;;;12.70;99.90;;;;;;5072943;28;20451;-73
2021/11/07 10:54:51;;;;;;;4.28;3.85;;;13.30;99.90;;;;;;5065677;28;20092;-72
2021/11/07 10:57:24;;;;;;;4.15;3.78;;;14.20;99.50;;;;;;5052420;28;20028;-72
2021/11/07 11:00:12;;;;;;;3.60;3.30;;;14.60;99.60;;;;;;5052088;28;20056;-72
2021/11/07 11:02:41;;;;;;;4.30;3.28;;;15.40;97.90;;;;;;5052345;28;20100;-72
2021/11/07 11:05:15;;;;;;;4.07;3.70;;;15.70;98.70;;;;;;5051302;28;20027;-72
2021/11/07 11:08:01;;;;;;;5.45;3.55;;;16.10;97.00;;;;;;5053151;28;20021;-71
2021/11/07 11:10:36;;;;;;;4.35;3.50;;;15.10;98.00;;;;;;5064858;28;20116;-72
2021/11/07 11:21:42;;;;;;;3.80;3.00;;;12.40;99.90;;;;;;5073083;28;20036;-74
2021/11/07 11:24:19;;;;;;;3.58;3.28;;;11.90;99.90;;;;;;5071814;28;20027;-73
2021/11/07 11:27:00;;;;;;;8.48;3.50;;;11.80;99.90;;;;;;5072213;28;20044;-73
2021/11/07 11:32:23;;;;;;;4.95;3.35;;;11.60;99.90;;;;;;5071587;28;20055;-73
2021/11/07 11:35:09;;;;;;;3.30;3.03;;;11.50;99.90;;;;;;5071903;28;20016;-72
2021/11/07 11:38:16;;;;;;;3.17;2.97;;;11.40;99.90;;;;;;5072610;28;20063;-73
2021/11/07 11:43:35;;;;;;;3.58;3.28;;;11.70;99.90;;;;;;5059658;28;20040;-73
2021/11/07 11:46:13;;;;;;;2.97;2.78;;;11.80;99.90;;;;;;5072626;28;20032;-72
2021/11/07 12:00:44;;;;;;;2.65;2.05;;;12.10;99.90;;;;;;5048698;28;20032;-73
2021/11/07 12:09:24;;;;;;;1.67;1.38;;;12.90;99.90;;;;;;5050354;28;20028;-66
2021/11/07 12:12:08;;;;;;;3.35;1.05;;;13.10;99.90;;;;;;5042415;28;20021;-67
2021/11/07 12:14:55;;;;;;;0.85;0.85;;;13.40;99.90;;;;;;5039096;28;20059;-67
2021/11/07 12:17:37;;;;;;;0.70;0.70;;;13.70;99.90;;;;;;5031995;28;20104;-65
2021/11/07 12:20:23;;;;;;;0.80;0.65;;;13.60;99.90;;;;;;5033487;28;20022;-66
2021/11/07 12:22:50;;;;;;;2.15;0.70;;;13.30;99.90;;;;;;5032853;28;20026;-66
2021/11/07 12:25:16;;;;;;;1.98;0.70;;;13.30;99.90;;;;;;5033578;28;20091;-68
2021/11/07 12:27:55;;;;;;;0.70;0.65;;;14.10;99.90;;;;;;5033666;28;20391;-66
2021/11/07 12:30:31;;;;;;;0.60;0.60;;;16.40;99.90;;;;;;5014533;28;20034;-67
2021/11/07 12:33:05;;;;;;;0.65;0.60;;;16.90;95.00;;;;;;5030197;28;20037;-66
2021/11/07 12:35:43;;;;;;;0.70;0.70;;;15.90;94.30;;;;;;5026703;28;20128;-67
2021/11/07 12:41:03;;;;;;;1.95;1.35;;;14.40;97.10;;;;;;5063759;28;20073;-66
2021/11/07 12:43:33;;;;;;;1.85;1.38;;;14.20;97.10;;;;;;5052314;28;20055;-67
2021/11/07 12:46:33;;;;;;;0.68;0.60;;;14.50;97.40;;;;;;5070202;28;20062;-67
2021/11/07 12:49:24;;;;;;;0.90;0.90;;;15.30;96.00;;;;;;5070587;28;20024;-67
2021/11/07 12:51:57;;;;;;;0.95;0.80;;;15.70;96.20;;;;;;5071063;28;20074;-68
2021/11/07 12:54:24;;;;;;;1.38;0.98;;;15.90;96.10;;;;;;5071120;28;20111;-68
2021/11/07 12:57:03;;;;;;;0.70;0.60;;;15.90;97.10;;;;;;5055031;28;20075;-68
2021/11/07 12:59:31;;;;;;;0.75;0.75;;;15.40;96.30;;;;;;5054596;28;20442;-68
2021/11/07 13:02:04;;;;;;;1.45;0.77;;;14.90;98.50;;;;;;5032940;28;20032;-67
2021/11/07 13:04:55;;;;;;;0.90;0.65;;;14.40;99.90;;;;;;5049909;28;20117;-68
2021/11/07 13:07:29;;;;;;;1.85;1.25;;;14.00;99.90;;;;;;5038367;28;20664;-67
2021/11/07 13:10:05;;;;;;;1.50;0.50;;;13.60;99.90;;;;;;5058132;28;20454;-67
2021/11/07 13:12:45;;;;;;;0.57;0.57;;;13.40;99.90;;;;;;5070342;28;20059;-67
2021/11/07 13:20:45;;;;;;;1.08;0.50;;;12.60;99.90;;;;;;5070062;28;20039;-66
2021/11/07 13:26:29;;;;;;;1.15;0.70;;;12.50;99.90;;;;;;5033682;28;20029;-72
2021/11/07 13:29:05;;;;;;;1.30;1.20;;;12.50;99.90;;;;;;5031302;28;20024;-71
2021/11/07 13:31:56;;;;;;;1.02;0.80;;;12.40;99.90;;;;;;5032305;28;20060;-72
2021/11/07 13:34:22;;;;;;;1.92;0.77;;;12.40;99.90;;;;;;5049491;28;20422;-71
2021/11/07 13:36:48;;;;;;;0.77;0.75;;;12.30;99.90;;;;;;5049753;28;20029;-73
2021/11/07 13:39:34;;;;;;;1.30;0.70;;;12.30;99.90;;;;;;5060120;22;20037;-77
2021/11/07 13:42:09;;;;;;;1.58;0.60;;;12.20;99.90;;;;;;5042591;28;20030;-80
2021/11/07 13:44:46;;;;;;;1.77;0.70;;;12.10;99.90;;;;;;5030295;28;20048;-76
2021/11/07 13:47:12;;;;;;;0.80;0.80;;;12.20;99.90;;;;;;5031836;28;20017;-78
2021/11/07 13:49:52;;;;;;;1.73;0.98;;;12.30;99.90;;;;;;5032221;28;20384;-78
2021/11/07 13:52:19;;;;;;;1.58;1.00;;;12.30;99.90;;;;;;5034167;28;20100;-71
2021/11/07 13:54:46;;;;;;;0.90;0.90;;;12.30;99.90;;;;;;5030282;28;20029;-72
2021/11/07 13:57:13;;;;;;;1.90;1.40;;;12.20;99.90;;;;;;5034915;28;20446;-73
2021/11/07 13:59:42;;;;;;;1.60;1.20;;;12.20;99.90;;;;;;5033701;28;20049;-73
2021/11/07 14:02:14;;;;;;;4.18;2.35;;;12.10;99.90;;;;;;5034451;28;20029;-74
2021/11/07 14:04:40;;;;;;;;;;;12.00;99.90;;;;;;5033321;28;20388;-72
2021/11/07 14:07:23;;;;;;;0.93;0.93;;;11.80;99.90;;;;;;5033760;28;19916;-72
2021/11/07 14:10:05;;;;;;;1.23;1.13;;;11.80;99.90;;;;;;5048821;28;20382;-72
2021/11/07 14:12:33;;;;;;;1.63;0.90;;;11.70;99.90;;;;;;5073910;28;20021;-73
2021/11/07 14:15:23;;;;;;;0.90;0.90;;;11.50;99.90;;;;;;5072519;28;20036;-72
2021/11/07 14:18:17;;;;;;;2.03;1.17;;;11.40;99.90;;;;;;5062857;28;20036;-72
2021/11/07 14:20:48;;;;;;;1.27;1.02;;;11.30;99.90;;;;;;5050621;28;20087;-73
2021/11/07 14:26:37;;;;;;;1.30;1.08;;;11.20;99.90;;;;;;5052510;28;20029;-72
2021/11/07 14:35:12;;;;;;;2.10;1.00;;;11.00;99.90;;;;;;5051901;28;20470;-72
2021/11/07 14:40:17;;;;;;;1.42;1.10;;;10.90;99.90;;;;;;5072322;28;20036;-72
2021/11/07 14:43:03;;;;;;;1.17;1.08;;;10.70;99.90;;;;;;5072763;28;20063;-73
2021/11/07 14:56:44;;;;;;;1.20;1.13;;;10.40;99.90;;;;;;5072185;28;20082;-73
2021/11/07 15:01:40;;;;;;;1.27;1.05;;;10.30;99.90;;;;;;5072408;28;20020;-72
2021/11/07 15:04:17;;;;;;;1.55;0.98;;;10.30;99.90;;;;;;5072541;28;20023;-71
2021/11/07 15:06:59;;;;;;;1.67;1.38;;;10.30;99.90;;;;;;5071980;28;20021;-72
2021/11/07 15:12:24;;;;;;;3.13;1.30;;;10.30;99.90;;;;;;5079769;28;20054;-73
2021/11/07 15:15:39;;;;;;;3.55;2.00;;;10.30;99.90;;;;;;5070903;28;20101;-72
2021/11/07 15:18:47;;;;;;;3.03;1.50;;;10.20;99.90;;;;;;4963737;28;20042;-71
2021/11/07 15:24:04;;;;;;;1.77;1.63;;;10.20;99.90;;;;;;5026753;28;20499;-73
2021/11/07 15:26:37;;;;;;;1.88;1.50;;;10.20;99.90;;;;;;5031484;28;20031;-75
2021/11/07 15:29:21;;;;;;;2.35;1.40;;;10.20;99.90;;;;;;5031766;28;20468;-73
2021/11/07 15:31:58;;;;;;;4.00;2.38;;;10.10;99.90;;;;;;5032214;28;20100;-72